createdAt,value
2022-08-16T00:00:05.323Z,44.6
2022-08-16T00:01:26.579Z,44.6
2022-08-16T00:02:46.745Z,44.5
2022-08-16T00:03:49.473Z,44.5
2022-08-16T00:04:51.614Z,44.6
2022-08-16T00:05:58.056Z,44.6
2022-08-16T00:07:00.760Z,44.6
2022-08-16T00:08:05.270Z,44.6
2022-08-16T00:09:06.918Z,44.7
2022-08-16T00:10:21.271Z,44.7
2022-08-16T00:11:23.827Z,44.7
2022-08-16T00:12:26.884Z,44.7
2022-08-16T00:13:29.064Z,44.7
2022-08-16T00:14:30.640Z,44.7
2022-08-16T00:15:54.437Z,44.7
2022-08-16T00:17:18.646Z,44.7
2022-08-16T00:18:31.634Z,44.7
2022-08-16T00:19:42.318Z,44.6
2022-08-16T00:20:43.939Z,44.6
2022-08-16T00:21:45.499Z,44.7
2022-08-16T00:22:47.317Z,44.7
2022-08-16T00:23:52.887Z,44.8
2022-08-16T00:24:54.860Z,44.8
2022-08-16T00:26:38.703Z,44.8
2022-08-16T00:27:47.384Z,44.6
2022-08-16T00:28:55.150Z,44.6
2022-08-16T00:30:09.131Z,44.6
2022-08-16T00:32:00.896Z,44.6
2022-08-16T00:33:08.634Z,44.6
2022-08-16T00:34:19.183Z,44.6
2022-08-16T00:35:21.429Z,44.6
2022-08-16T00:36:24.507Z,44.6
2022-08-16T00:37:59.404Z,44.7
2022-08-16T00:39:01.383Z,44.6
2022-08-16T00:40:36.444Z,44.6
2022-08-16T00:41:55.364Z,44.6
2022-08-16T00:42:57.010Z,44.6
2022-08-16T00:43:58.537Z,44.6
2022-08-16T00:45:00.407Z,44.7
2022-08-16T00:46:35.289Z,44.7
2022-08-16T00:47:37.394Z,44.7
2022-08-16T00:48:45.647Z,44.7
2022-08-16T00:49:56.929Z,44.7
2022-08-16T00:50:59.841Z,44.7
2022-08-16T00:52:01.885Z,44.7
2022-08-16T00:53:03.527Z,44.7
2022-08-16T00:54:05.445Z,44.7
2022-08-16T00:55:08.772Z,44.8
2022-08-16T00:56:59.435Z,44.8
2022-08-16T00:58:01.891Z,44.8
2022-08-16T00:59:04.365Z,44.7
2022-08-16T01:00:08.903Z,44.7
2022-08-16T01:01:10.956Z,44.8
2022-08-16T01:02:32.605Z,44.8
2022-08-16T01:03:35.342Z,44.8
2022-08-16T01:04:37.675Z,44.8
2022-08-16T01:05:39.350Z,44.8
2022-08-16T01:07:02.777Z,44.9
2022-08-16T01:08:36.630Z,44.9
2022-08-16T01:09:43.268Z,44.8
2022-08-16T01:10:45.526Z,44.8
2022-08-16T01:11:55.472Z,44.8
2022-08-16T01:13:00.437Z,44.8
2022-08-16T01:14:02.444Z,44.8
2022-08-16T01:15:04.178Z,44.9
2022-08-16T01:16:10.609Z,44.9
2022-08-16T01:17:13.131Z,45
2022-08-16T01:18:41.523Z,45
2022-08-16T01:19:44.664Z,45
2022-08-16T01:20:50.923Z,44.9
2022-08-16T01:21:53.113Z,45
2022-08-16T01:22:57.189Z,45
2022-08-16T01:24:02.622Z,45
2022-08-16T01:25:04.658Z,45
2022-08-16T01:26:35.651Z,45
2022-08-16T01:27:38.787Z,45
2022-08-16T01:28:45.762Z,45
2022-08-16T01:29:59.852Z,45
2022-08-16T01:31:01.850Z,45
2022-08-16T01:32:03.381Z,45
2022-08-16T01:33:15.941Z,45
2022-08-16T01:34:26.464Z,45
2022-08-16T01:35:36.256Z,45.1
2022-08-16T01:36:38.073Z,45
2022-08-16T01:37:42.656Z,45.1
2022-08-16T01:38:56.794Z,45.1
2022-08-16T01:40:00.947Z,45
2022-08-16T01:41:08.571Z,45
2022-08-16T01:42:13.324Z,45.1
2022-08-16T01:43:28.043Z,45.1
2022-08-16T01:44:38.596Z,45.1
2022-08-16T01:45:41.878Z,45.1
2022-08-16T01:46:45.464Z,45.1
2022-08-16T01:47:51.863Z,45.1
2022-08-16T01:48:54.692Z,45.1
2022-08-16T01:51:05.245Z,45.1
2022-08-16T01:52:30.496Z,44.9
2022-08-16T01:53:33.737Z,44.9
2022-08-16T01:54:37.736Z,44.9
2022-08-16T01:55:41.645Z,45
2022-08-16T01:56:56.490Z,45
2022-08-16T01:57:59.771Z,45
2022-08-16T01:59:01.419Z,45.1
2022-08-16T02:00:02.947Z,45.1
2022-08-16T02:01:04.680Z,45.1
2022-08-16T02:02:28.411Z,45.1
2022-08-16T02:03:31.041Z,45.1
2022-08-16T02:04:54.857Z,45.1
2022-08-16T02:05:57.485Z,45.1
2022-08-16T02:06:59.636Z,45.1
2022-08-16T02:08:01.402Z,45.1
2022-08-16T02:09:05.594Z,45.1
2022-08-16T02:10:08.460Z,45.1
2022-08-16T02:11:10.821Z,45.1
2022-08-16T02:12:56.040Z,45.1
2022-08-16T02:14:03.983Z,45.1
2022-08-16T02:15:05.729Z,45.1
2022-08-16T02:16:19.039Z,45.1
2022-08-16T02:17:23.355Z,45.1
2022-08-16T02:18:24.891Z,45.1
2022-08-16T02:20:00.815Z,45.1
2022-08-16T02:21:04.442Z,45.1
2022-08-16T02:22:35.216Z,45
2022-08-16T02:23:40.768Z,45
2022-08-16T02:24:46.386Z,45
2022-08-16T02:25:52.963Z,45
2022-08-16T02:26:57.363Z,45
2022-08-16T02:28:00.516Z,45
2022-08-16T02:29:02.155Z,45
2022-08-16T02:30:06.044Z,45
2022-08-16T02:31:09.031Z,45
2022-08-16T02:32:51.944Z,45.1
2022-08-16T02:33:55.106Z,45
2022-08-16T02:34:56.928Z,45.1
2022-08-16T02:36:00.401Z,45.1
2022-08-16T02:37:06.703Z,45.1
2022-08-16T02:38:09.475Z,45.1
2022-08-16T02:39:11.009Z,45.1
2022-08-16T02:40:16.650Z,45.2
2022-08-16T02:41:20.244Z,45.2
2022-08-16T02:42:21.781Z,45.2
2022-08-16T02:43:27.667Z,45.3
2022-08-16T02:44:29.260Z,45.3
2022-08-16T02:45:31.736Z,45.3
2022-08-16T02:46:33.996Z,45.3
2022-08-16T02:48:30.191Z,45.3
2022-08-16T02:51:06.861Z,45.2
2022-08-16T02:52:29.657Z,45
2022-08-16T02:53:34.125Z,45
2022-08-16T02:54:37.033Z,45
2022-08-16T02:55:41.707Z,45.1
2022-08-16T02:56:48.214Z,45.2
2022-08-16T02:57:54.868Z,45.3
2022-08-16T02:58:56.925Z,45.4
2022-08-16T03:00:35.214Z,45.5
2022-08-16T03:01:39.781Z,45.5
2022-08-16T03:02:42.512Z,45.5
2022-08-16T03:04:52.099Z,45.5
2022-08-16T03:05:56.315Z,45.4
2022-08-16T03:06:58.215Z,45.4
2022-08-16T03:08:00.767Z,45.5
2022-08-16T03:09:03.234Z,45.6
2022-08-16T03:10:04.899Z,45.7
2022-08-16T03:11:21.687Z,45.7
2022-08-16T03:12:37.965Z,45.7
2022-08-16T03:13:59.651Z,45.7
2022-08-16T03:15:01.714Z,45.7
2022-08-16T03:16:03.357Z,45.7
2022-08-16T03:17:05.127Z,45.7
2022-08-16T03:18:34.370Z,45.7
2022-08-16T03:20:02.403Z,45.8
2022-08-16T03:21:05.470Z,45.7
2022-08-16T03:22:07.118Z,45.7
2022-08-16T03:23:08.665Z,45.8
2022-08-16T03:24:29.817Z,45.8
2022-08-16T03:25:44.957Z,45.8
2022-08-16T03:26:51.581Z,45.8
2022-08-16T03:27:53.293Z,45.9
2022-08-16T03:28:57.026Z,45.9
2022-08-16T03:29:58.669Z,45.9
2022-08-16T03:31:00.934Z,45.9
2022-08-16T03:32:04.313Z,46
2022-08-16T03:33:08.144Z,46
2022-08-16T03:34:13.341Z,46
2022-08-16T03:35:18.137Z,46
2022-08-16T03:36:32.760Z,46
2022-08-16T03:38:03.982Z,45.9
2022-08-16T03:39:43.458Z,45.9
2022-08-16T03:40:45.568Z,45.8
2022-08-16T03:41:51.215Z,45.8
2022-08-16T03:43:21.708Z,45.8
2022-08-16T03:44:47.599Z,45.9
2022-08-16T03:45:53.658Z,45.8
2022-08-16T03:46:58.384Z,45.9
2022-08-16T03:48:00.232Z,45.9
2022-08-16T03:49:02.177Z,45.9
2022-08-16T03:50:26.759Z,45.9
2022-08-16T03:51:28.553Z,45.9
2022-08-16T03:52:32.024Z,45.9
2022-08-16T03:53:38.600Z,46
2022-08-16T03:54:58.398Z,46.1
2022-08-16T03:56:01.379Z,46.1
2022-08-16T03:57:05.352Z,46.2
2022-08-16T03:58:16.983Z,46.2
2022-08-16T03:59:18.562Z,46.4
2022-08-16T04:00:40.783Z,46.4
2022-08-16T04:01:44.244Z,46.4
2022-08-16T04:02:55.793Z,46.3
2022-08-16T04:03:57.553Z,46.4
2022-08-16T04:05:02.191Z,46.6
2022-08-16T04:06:05.777Z,46.5
2022-08-16T04:07:07.629Z,46.5
2022-08-16T04:08:24.649Z,46.6
2022-08-16T04:09:28.874Z,46.6
2022-08-16T04:10:38.161Z,46.6
2022-08-16T04:11:42.368Z,46.7
2022-08-16T04:12:59.516Z,46.8
2022-08-16T04:14:33.623Z,46.7
2022-08-16T04:15:37.335Z,46.6
2022-08-16T04:16:43.322Z,46.5
2022-08-16T04:17:44.877Z,46.7
2022-08-16T04:18:46.422Z,46.9
2022-08-16T04:19:54.822Z,46.9
2022-08-16T04:21:03.424Z,46.8
2022-08-16T04:22:09.161Z,46.9
2022-08-16T04:23:14.113Z,46.8
2022-08-16T04:24:17.742Z,46.9
2022-08-16T04:25:19.286Z,46.9
2022-08-16T04:26:23.935Z,46.9
2022-08-16T04:27:34.798Z,46.8
2022-08-16T04:29:14.905Z,47
2022-08-16T04:30:34.759Z,46.9
2022-08-16T04:31:37.488Z,46.8
2022-08-16T04:32:40.383Z,46.8
2022-08-16T04:33:51.542Z,47
2022-08-16T04:34:54.912Z,47
2022-08-16T04:35:57.586Z,46.8
2022-08-16T04:37:02.060Z,46.8
2022-08-16T04:38:21.672Z,46.8
2022-08-16T04:39:24.408Z,47
2022-08-16T04:40:58.541Z,47.1
2022-08-16T04:42:11.708Z,47.1
2022-08-16T04:43:17.767Z,47
2022-08-16T04:44:55.406Z,46.9
2022-08-16T04:46:01.116Z,46.9
2022-08-16T04:47:24.662Z,47
2022-08-16T04:48:34.629Z,47.1
2022-08-16T04:49:46.423Z,47
2022-08-16T04:50:48.064Z,47.1
2022-08-16T04:51:55.431Z,47.1
2022-08-16T04:52:59.307Z,47
2022-08-16T04:54:01.043Z,47
2022-08-16T04:55:04.981Z,47.1
2022-08-16T04:56:11.912Z,47.2
2022-08-16T04:57:18.097Z,47.3
2022-08-16T04:58:46.550Z,47.2
2022-08-16T04:59:54.404Z,47.1
2022-08-16T05:00:56.940Z,47.3
2022-08-16T05:01:59.818Z,47.4
2022-08-16T05:04:01.792Z,47.4
2022-08-16T05:05:04.738Z,47.2
2022-08-16T05:06:09.512Z,47
2022-08-16T05:07:20.759Z,47
2022-08-16T05:08:31.116Z,46.8
2022-08-16T05:09:38.296Z,46.7
2022-08-16T05:10:50.616Z,46.6
2022-08-16T05:11:57.818Z,46.7
2022-08-16T05:12:59.447Z,46.6
2022-08-16T05:14:07.532Z,46.5
2022-08-16T05:15:11.051Z,46.6
2022-08-16T05:16:21.605Z,46.6
2022-08-16T05:17:26.326Z,46.7
2022-08-16T05:18:30.019Z,46.8
2022-08-16T05:19:36.744Z,46.7
2022-08-16T05:21:01.561Z,46.6
2022-08-16T05:22:18.531Z,46.3
2022-08-16T05:23:23.601Z,46.2
2022-08-16T05:24:25.962Z,46.2
2022-08-16T05:25:48.867Z,46.2
2022-08-16T05:26:52.009Z,46.2
2022-08-16T05:27:56.808Z,46.1
2022-08-16T05:28:59.272Z,46.1
2022-08-16T05:30:35.858Z,46.1
2022-08-16T05:31:52.936Z,45.9
2022-08-16T05:32:55.807Z,45.8
2022-08-16T05:34:00.031Z,45.8
2022-08-16T05:35:01.911Z,46
2022-08-16T05:36:14.725Z,46
2022-08-16T05:37:24.720Z,45.9
2022-08-16T05:38:41.266Z,45.9
2022-08-16T05:39:45.148Z,45.8
2022-08-16T05:41:00.328Z,45.9
2022-08-16T05:42:03.523Z,45.9
2022-08-16T05:43:05.318Z,46
2022-08-16T05:44:25.130Z,46
2022-08-16T05:45:27.023Z,45.9
2022-08-16T05:46:31.482Z,45.9
2022-08-16T05:47:43.591Z,45.9
2022-08-16T05:48:56.341Z,45.9
2022-08-16T05:50:19.694Z,45.8
2022-08-16T05:51:41.509Z,45.6
2022-08-16T05:52:47.660Z,45.3
2022-08-16T05:53:50.723Z,45.5
2022-08-16T05:55:01.874Z,45.6
2022-08-16T05:56:04.543Z,45.4
2022-08-16T05:57:13.535Z,45.2
2022-08-16T05:58:32.904Z,45
2022-08-16T05:59:36.957Z,45
2022-08-16T06:00:38.800Z,44.8
2022-08-16T06:01:40.497Z,44.6
2022-08-16T06:02:45.797Z,44.6
2022-08-16T06:03:50.742Z,44.5
2022-08-16T06:04:54.703Z,45
2022-08-16T06:06:01.060Z,45.1
2022-08-16T06:07:09.192Z,45.1
2022-08-16T06:08:42.018Z,45
2022-08-16T06:09:52.761Z,44.8
2022-08-16T06:11:11.067Z,44.7
2022-08-16T06:12:28.726Z,44.7
2022-08-16T06:13:32.966Z,44.8
2022-08-16T06:14:36.406Z,44.6
2022-08-16T06:15:41.875Z,44.5
2022-08-16T06:16:43.414Z,44.4
2022-08-16T06:17:45.074Z,44.3
2022-08-16T06:18:46.613Z,44.3
2022-08-16T06:19:51.427Z,44.2
2022-08-16T06:20:56.206Z,44.5
2022-08-16T06:22:02.500Z,44.4
2022-08-16T06:23:18.177Z,44.4
2022-08-16T06:24:55.973Z,44.5
2022-08-16T06:25:58.736Z,44.4
2022-08-16T06:27:00.340Z,44.5
2022-08-16T06:28:09.710Z,44.4
2022-08-16T06:29:38.163Z,44.1
2022-08-16T06:30:45.470Z,44
2022-08-16T06:31:49.565Z,44
2022-08-16T06:32:52.971Z,44
2022-08-16T06:33:57.250Z,43.9
2022-08-16T06:35:03.249Z,44
2022-08-16T06:36:08.529Z,44
2022-08-16T06:37:10.327Z,43.9
2022-08-16T06:38:34.532Z,44
2022-08-16T06:39:50.420Z,44.1
2022-08-16T06:40:52.459Z,44
2022-08-16T06:41:54.137Z,43.9
2022-08-16T06:42:57.801Z,44
2022-08-16T06:44:00.391Z,44
2022-08-16T06:45:02.005Z,44
2022-08-16T06:46:04.060Z,44
2022-08-16T06:47:07.591Z,44
2022-08-16T06:48:10.459Z,44.1
2022-08-16T06:49:12.142Z,44.2
2022-08-16T06:50:29.952Z,44.4
2022-08-16T06:51:49.027Z,44.4
2022-08-16T06:53:09.532Z,44.4
2022-08-16T06:54:16.540Z,44.2
2022-08-16T06:55:18.183Z,44.1
2022-08-16T06:56:23.886Z,44.2
2022-08-16T06:57:27.023Z,44
2022-08-16T06:58:32.250Z,44
2022-08-16T06:59:58.244Z,44.1
2022-08-16T07:01:14.749Z,44.2
2022-08-16T07:02:34.056Z,44.1
2022-08-16T07:03:57.531Z,44
2022-08-16T07:04:59.940Z,44
2022-08-16T07:06:01.676Z,43.8
2022-08-16T07:07:06.338Z,43.9
2022-08-16T07:08:11.826Z,43.8
2022-08-16T07:09:16.165Z,43.9
2022-08-16T07:10:18.670Z,43.8
2022-08-16T07:11:51.803Z,43.8
2022-08-16T07:13:08.579Z,43.5
2022-08-16T07:15:25.487Z,43.1
2022-08-16T07:16:28.058Z,42.9
2022-08-16T07:17:30.722Z,43.1
2022-08-16T07:18:32.683Z,42.9
2022-08-16T07:20:29.467Z,42.7
2022-08-16T07:22:00.355Z,42.9
2022-08-16T07:23:13.672Z,42.9
2022-08-16T07:24:31.154Z,42.5
2022-08-16T07:25:32.858Z,42.3
2022-08-16T07:26:48.916Z,42.3
2022-08-16T07:27:51.396Z,42.2
2022-08-16T07:28:53.225Z,42.1
2022-08-16T07:29:56.523Z,42.1
2022-08-16T07:30:58.163Z,42.1
2022-08-16T07:32:01.182Z,42.1
2022-08-16T07:33:02.986Z,42.1
2022-08-16T07:34:10.526Z,42.1
2022-08-16T07:35:14.570Z,42.1
2022-08-16T07:36:22.893Z,42
2022-08-16T07:37:25.035Z,42.1
2022-08-16T07:38:34.412Z,42.1
2022-08-16T07:39:43.775Z,42.1
2022-08-16T07:41:10.753Z,42.3
2022-08-16T07:42:28.761Z,42.4
2022-08-16T07:43:41.795Z,42.2
2022-08-16T07:44:50.887Z,42
2022-08-16T07:45:53.498Z,42
2022-08-16T07:46:56.552Z,42
2022-08-16T07:47:58.777Z,42
2022-08-16T07:49:13.841Z,41.9
2022-08-16T07:50:59.698Z,41.9
2022-08-16T07:52:20.873Z,41.9
2022-08-16T07:53:22.988Z,41.9
2022-08-16T07:54:39.475Z,42
2022-08-16T07:55:54.853Z,41.8
2022-08-16T07:56:56.551Z,41.7
2022-08-16T07:58:03.354Z,41.7
2022-08-16T07:59:05.316Z,41.9
2022-08-16T08:00:18.910Z,41.9
2022-08-16T08:01:25.034Z,41.9
2022-08-16T08:02:31.027Z,42
2022-08-16T08:03:41.639Z,42
2022-08-16T08:04:50.859Z,42.1
2022-08-16T08:05:52.865Z,41.9
2022-08-16T08:06:54.521Z,42
2022-08-16T08:07:57.905Z,42.1
2022-08-16T08:08:59.853Z,41.8
2022-08-16T08:10:04.708Z,41.8
2022-08-16T08:11:18.429Z,41.8
2022-08-16T08:12:43.926Z,41.5
2022-08-16T08:13:50.958Z,41.6
2022-08-16T08:14:55.526Z,41.5
2022-08-16T08:15:57.167Z,41.5
2022-08-16T08:17:01.899Z,41.6
2022-08-16T08:18:30.878Z,41.6
2022-08-16T08:19:33.400Z,41.5
2022-08-16T08:20:36.132Z,41.5
2022-08-16T08:22:02.309Z,41.7
2022-08-16T08:23:09.691Z,41.6
2022-08-16T08:24:11.273Z,41.6
2022-08-16T08:25:19.324Z,41.6
2022-08-16T08:26:21.062Z,41.7
2022-08-16T08:27:25.676Z,41.7
2022-08-16T08:28:28.058Z,41.7
2022-08-16T08:29:40.749Z,41.6
2022-08-16T08:31:02.838Z,41.6
2022-08-16T08:33:02.610Z,41.5
2022-08-16T08:34:06.676Z,41.5
2022-08-16T08:35:10.775Z,41.5
2022-08-16T08:36:22.414Z,41.4
2022-08-16T08:37:24.409Z,41.4
2022-08-16T08:38:56.373Z,41.4
2022-08-16T08:40:00.824Z,41.4
2022-08-16T08:41:04.315Z,41.4
2022-08-16T08:42:06.222Z,41.5
2022-08-16T08:43:18.800Z,41.5
2022-08-16T08:44:31.405Z,41.5
2022-08-16T08:45:52.400Z,41.4
2022-08-16T08:47:01.694Z,41.5
2022-08-16T08:48:35.629Z,41.5
2022-08-16T08:49:50.657Z,41.4
2022-08-16T08:50:59.698Z,41.4
2022-08-16T08:52:08.240Z,41.4
2022-08-16T08:53:13.349Z,41.5
2022-08-16T08:54:20.768Z,41.4
2022-08-16T08:55:24.619Z,41.5
2022-08-16T08:56:26.280Z,41.4
2022-08-16T08:57:29.153Z,41.3
2022-08-16T08:58:34.985Z,41.5
2022-08-16T08:59:41.163Z,41.7
2022-08-16T09:00:52.039Z,41.7
2022-08-16T09:01:58.646Z,41.6
2022-08-16T09:03:04.849Z,41.6
2022-08-16T09:04:17.783Z,41.5
2022-08-16T09:05:22.447Z,41.5
2022-08-16T09:06:26.658Z,41.6
2022-08-16T09:07:28.309Z,41.7
2022-08-16T09:08:35.205Z,41.7
2022-08-16T09:09:41.436Z,41.6
2022-08-16T09:10:45.484Z,41.5
2022-08-16T09:12:00.292Z,41.7
2022-08-16T09:13:10.941Z,41.7
2022-08-16T09:14:25.105Z,41.6
2022-08-16T09:15:33.573Z,41.6
2022-08-16T09:17:11.554Z,41.9
2022-08-16T09:19:04.262Z,41.8
2022-08-16T09:20:13.239Z,41.7
2022-08-16T09:21:16.831Z,42
2022-08-16T09:22:34.252Z,42
2022-08-16T09:23:37.150Z,41.7
2022-08-16T09:24:54.126Z,42.1
2022-08-16T09:26:46.694Z,42.3
2022-08-16T09:28:02.149Z,41.8
2022-08-16T09:29:23.858Z,41.3
2022-08-16T09:30:47.923Z,40.2
2022-08-16T09:31:53.841Z,39.9
2022-08-16T09:32:55.553Z,40.1
2022-08-16T09:33:57.355Z,40.3
2022-08-16T09:34:59.013Z,40.9
2022-08-16T09:36:00.652Z,41.1
2022-08-16T09:37:19.557Z,41.3
2022-08-16T09:38:41.108Z,41.2
2022-08-16T09:39:49.693Z,41.2
2022-08-16T09:40:53.458Z,41
2022-08-16T09:41:55.402Z,40.8
2022-08-16T09:42:59.933Z,40.7
2022-08-16T09:45:11.577Z,40.6
2022-08-16T09:46:50.111Z,40.8
2022-08-16T09:47:59.407Z,40.7
2022-08-16T09:49:04.429Z,40.7
2022-08-16T09:50:23.255Z,40.8
2022-08-16T09:51:37.437Z,40.6
2022-08-16T09:52:44.523Z,40.9
2022-08-16T09:53:55.256Z,41
2022-08-16T09:54:59.348Z,40.6
2022-08-16T09:56:01.210Z,41
2022-08-16T09:57:03.162Z,41.3
2022-08-16T09:58:05.416Z,41.2
2022-08-16T09:59:42.397Z,40.9
2022-08-16T10:00:46.037Z,41
2022-08-16T10:01:50.081Z,41
2022-08-16T10:02:56.808Z,41
2022-08-16T10:04:08.232Z,41.1
2022-08-16T10:05:56.091Z,41.4
2022-08-16T10:08:27.171Z,41.8
2022-08-16T10:09:54.128Z,42
2022-08-16T10:11:02.541Z,42.9
2022-08-16T10:12:19.543Z,43.6
2022-08-16T10:13:21.901Z,43.5
2022-08-16T10:14:32.746Z,43.5
2022-08-16T10:15:37.684Z,42.7
2022-08-16T10:16:49.128Z,42.5
2022-08-16T10:19:06.843Z,42.9
2022-08-16T10:20:18.863Z,41.6
2022-08-16T10:21:24.331Z,41.6
2022-08-16T10:22:34.565Z,41.4
2022-08-16T10:23:43.482Z,41.4
2022-08-16T10:25:00.229Z,41.5
2022-08-16T10:27:27.416Z,41.3
2022-08-16T10:30:06.724Z,41.8
2022-08-16T10:31:46.797Z,41.4
2022-08-16T10:32:58.381Z,41.3
2022-08-16T10:34:00.026Z,40.8
2022-08-16T10:35:02.301Z,41.5
2022-08-16T10:36:04.562Z,41.2
2022-08-16T10:37:06.302Z,41.2
2022-08-16T10:38:30.261Z,41.1
2022-08-16T10:39:42.486Z,41
2022-08-16T10:40:45.781Z,40.5
2022-08-16T10:41:47.581Z,40.7
2022-08-16T10:42:50.569Z,40.8
2022-08-16T10:43:52.213Z,40.7
2022-08-16T10:44:55.289Z,40.6
2022-08-16T10:46:01.301Z,40.6
2022-08-16T10:47:03.605Z,40.6
2022-08-16T10:48:28.730Z,40.7
2022-08-16T10:49:33.265Z,41.1
2022-08-16T10:50:35.977Z,41.4
2022-08-16T10:52:17.763Z,41.8
2022-08-16T10:53:22.183Z,40.3
2022-08-16T10:54:30.664Z,40.1
2022-08-16T10:55:45.737Z,40.6
2022-08-16T10:57:04.636Z,39.6
2022-08-16T10:58:13.401Z,39.4
2022-08-16T10:59:52.962Z,39.5
2022-08-16T11:01:00.443Z,40.1
2022-08-16T11:02:57.285Z,39.8
2022-08-16T11:05:06.177Z,39.8
2022-08-16T11:06:12.683Z,40.3
2022-08-16T11:07:51.883Z,40.4
2022-08-16T11:09:28.799Z,40.4
2022-08-16T11:11:08.320Z,39.3
2022-08-16T11:12:25.162Z,38.8
2022-08-16T11:14:06.233Z,39
2022-08-16T11:15:18.631Z,39.3
2022-08-16T11:17:11.113Z,39.4
2022-08-16T11:19:12.124Z,39
2022-08-16T11:20:48.705Z,39.1
2022-08-16T11:22:23.471Z,39.3
2022-08-16T11:23:58.782Z,39.1
2022-08-16T11:26:16.772Z,39.4
2022-08-16T11:27:36.425Z,39
2022-08-16T11:29:15.503Z,39.8
2022-08-16T11:30:20.354Z,40.4
2022-08-16T11:31:54.157Z,39.7
2022-08-16T11:32:56.122Z,38.8
2022-08-16T11:33:59.011Z,38.7
2022-08-16T11:35:14.523Z,38.3
2022-08-16T11:36:28.900Z,38.5
2022-08-16T11:38:23.737Z,38.4
2022-08-16T11:40:01.229Z,38.1
2022-08-16T11:41:03.314Z,38.1
2022-08-16T11:42:29.739Z,38.1
2022-08-16T11:43:39.037Z,38.1
2022-08-16T11:44:56.362Z,37.9
2022-08-16T11:46:44.056Z,37.7
2022-08-16T11:47:48.909Z,37.9
2022-08-16T11:48:51.212Z,38.3
2022-08-16T11:49:52.766Z,38.3
2022-08-16T11:50:54.517Z,38.3
2022-08-16T11:51:56.263Z,38.4
2022-08-16T11:53:03.557Z,38.6
2022-08-16T11:54:20.290Z,38.7
2022-08-16T11:55:38.489Z,38.8
2022-08-16T11:56:57.526Z,39.1
2022-08-16T11:58:00.489Z,38.6
2022-08-16T11:59:02.235Z,38.2
2022-08-16T12:00:07.361Z,38.4
2022-08-16T12:02:04.247Z,38.2
2022-08-16T12:03:37.166Z,37.5
2022-08-16T12:04:43.855Z,37.3
2022-08-16T12:05:45.598Z,37.4
2022-08-16T12:06:50.108Z,37.7
2022-08-16T12:07:56.458Z,37.5
2022-08-16T12:09:12.903Z,37.6
2022-08-16T12:10:16.762Z,37.6
2022-08-16T12:11:22.612Z,38.6
2022-08-16T12:12:28.743Z,38.8
2022-08-16T12:13:30.325Z,38.8
2022-08-16T12:14:36.967Z,38.3
2022-08-16T12:15:39.300Z,37.7
2022-08-16T12:16:55.373Z,37.8
2022-08-16T12:17:58.886Z,37.4
2022-08-16T12:19:00.425Z,37.6
2022-08-16T12:20:05.102Z,37.2
2022-08-16T12:21:19.933Z,37
2022-08-16T12:22:23.937Z,37.1
2022-08-16T12:23:25.613Z,37.6
2022-08-16T12:24:27.947Z,37.4
2022-08-16T12:25:30.271Z,37.6
2022-08-16T12:26:31.904Z,37.9
2022-08-16T12:27:33.451Z,38
2022-08-16T12:28:56.637Z,38
2022-08-16T12:29:59.071Z,38
2022-08-16T12:31:01.023Z,37.7
2022-08-16T12:32:41.801Z,37.8
2022-08-16T12:33:45.286Z,37.9
2022-08-16T12:34:53.258Z,37.8
2022-08-16T12:35:55.286Z,37.6
2022-08-16T12:36:56.926Z,37.1
2022-08-16T12:37:59.240Z,37.3
2022-08-16T12:39:01.086Z,37.5
2022-08-16T12:40:04.868Z,37.7
2022-08-16T12:41:08.362Z,37.7
2022-08-16T12:42:10.112Z,37.5
2022-08-16T12:43:11.793Z,37.7
2022-08-16T12:44:20.199Z,37.9
2022-08-16T12:45:23.645Z,37.8
2022-08-16T12:46:25.287Z,38.1
2022-08-16T12:47:28.061Z,38.5
2022-08-16T12:48:35.255Z,37.9
2022-08-16T12:49:42.577Z,38.3
2022-08-16T12:50:50.455Z,38.9
2022-08-16T12:52:00.253Z,38.2
2022-08-16T12:53:06.293Z,38.1
2022-08-16T12:54:07.938Z,37.8
2022-08-16T12:55:14.549Z,37.6
2022-08-16T12:56:19.012Z,37.5
2022-08-16T12:57:21.448Z,37.4
2022-08-16T12:58:51.500Z,37.5
2022-08-16T12:59:56.207Z,37.9
2022-08-16T13:00:58.183Z,37.8
2022-08-16T13:02:06.159Z,37.7
2022-08-16T13:03:40.772Z,37.6
2022-08-16T13:04:43.535Z,37.8
2022-08-16T13:05:55.924Z,37.6
2022-08-16T13:06:59.848Z,37.7
2022-08-16T13:08:01.823Z,37.6
2022-08-16T13:09:04.084Z,37.6
2022-08-16T13:10:39.166Z,37.8
2022-08-16T13:11:41.638Z,37.6
2022-08-16T13:13:01.218Z,37.7
2022-08-16T13:14:05.424Z,37.8
2022-08-16T13:15:10.696Z,37.7
2022-08-16T13:16:20.967Z,37.7
2022-08-16T13:17:30.147Z,37.6
2022-08-16T13:18:35.682Z,37.4
2022-08-16T13:20:08.872Z,37.7
2022-08-16T13:21:13.650Z,37.4
2022-08-16T13:22:19.962Z,37.4
2022-08-16T13:23:21.801Z,37.5
2022-08-16T13:24:25.545Z,37.4
2022-08-16T13:25:28.626Z,37.4
2022-08-16T13:26:31.199Z,37.4
2022-08-16T13:28:04.554Z,37.4
2022-08-16T13:29:17.084Z,37.5
2022-08-16T13:30:41.028Z,37.4
2022-08-16T13:31:46.505Z,37.3
2022-08-16T13:32:52.261Z,37.2
2022-08-16T13:33:59.135Z,37.1
2022-08-16T13:35:01.353Z,36.9
2022-08-16T13:36:02.920Z,37
2022-08-16T13:37:04.610Z,37.3
2022-08-16T13:38:07.691Z,37.3
2022-08-16T13:39:10.296Z,37.6
2022-08-16T13:40:20.553Z,37.6
2022-08-16T13:41:24.971Z,37.6
2022-08-16T13:42:31.639Z,37.7
2022-08-16T13:43:33.478Z,37.6
2022-08-16T13:44:58.530Z,37.4
2022-08-16T13:46:04.941Z,36.9
2022-08-16T13:47:07.581Z,36.6
2022-08-16T13:48:09.224Z,37.3
2022-08-16T13:49:10.978Z,36.6
2022-08-16T13:50:12.544Z,36.8
2022-08-16T13:51:18.178Z,37.2
2022-08-16T13:52:20.326Z,37.3
2022-08-16T13:53:24.990Z,37.2
2022-08-16T13:54:32.037Z,37.3
2022-08-16T13:55:33.914Z,37.4
2022-08-16T13:56:39.614Z,37.4
2022-08-16T13:58:34.594Z,37
2022-08-16T14:00:00.727Z,36.5
2022-08-16T14:01:10.193Z,35.8
2022-08-16T14:02:15.373Z,35.8
2022-08-16T14:03:18.549Z,35.8
2022-08-16T14:04:27.129Z,36
2022-08-16T14:05:29.254Z,35.9
2022-08-16T14:06:30.794Z,36.2
2022-08-16T14:07:36.490Z,36.4
2022-08-16T14:08:43.870Z,36.5
2022-08-16T14:10:08.631Z,36.4
2022-08-16T14:11:12.547Z,36.4
2022-08-16T14:12:18.415Z,36.2
2022-08-16T14:13:22.022Z,35.9
2022-08-16T14:14:30.257Z,35.6
2022-08-16T14:15:34.701Z,35.5
2022-08-16T14:16:37.591Z,35.3
2022-08-16T14:18:20.931Z,35.5
2022-08-16T14:19:32.166Z,35.1
2022-08-16T14:20:33.915Z,35.2
2022-08-16T14:21:36.180Z,34.7
2022-08-16T14:22:42.711Z,34.8
2022-08-16T14:23:45.046Z,34.8
2022-08-16T14:24:47.548Z,34.7
2022-08-16T14:25:57.373Z,35.3
2022-08-16T14:26:59.661Z,35.6
2022-08-16T14:28:09.909Z,35.7
2022-08-16T14:30:20.826Z,36
2022-08-16T14:31:23.765Z,35.9
2022-08-16T14:32:34.540Z,35.5
2022-08-16T14:33:36.297Z,35.3
2022-08-16T14:34:38.210Z,35
2022-08-16T14:35:50.859Z,34.8
2022-08-16T14:36:53.343Z,34.7
2022-08-16T14:37:57.406Z,34.7
2022-08-16T14:38:59.076Z,34.7
2022-08-16T14:40:01.009Z,34.5
2022-08-16T14:41:10.628Z,34.3
2022-08-16T14:42:13.696Z,34.3
2022-08-16T14:43:18.552Z,34.2
2022-08-16T14:44:21.205Z,34.2
2022-08-16T14:45:22.822Z,34.2
2022-08-16T14:46:24.577Z,33.9
2022-08-16T14:47:35.071Z,33.8
2022-08-16T14:48:37.178Z,33.9
2022-08-16T14:49:40.873Z,33.9
2022-08-16T14:50:42.927Z,33.7
2022-08-16T14:51:44.952Z,33.5
2022-08-16T14:53:04.040Z,33.5
2022-08-16T14:54:11.641Z,33.6
2022-08-16T14:55:17.260Z,33.6
2022-08-16T14:56:46.801Z,33.5
2022-08-16T14:57:58.745Z,33.3
2022-08-16T14:59:02.027Z,33.1
2022-08-16T15:00:06.656Z,33.1
2022-08-16T15:01:13.454Z,33.1
2022-08-16T15:02:35.171Z,33.1
2022-08-16T15:03:37.845Z,32.9
2022-08-16T15:04:49.365Z,32.7
2022-08-16T15:05:54.276Z,32.8
2022-08-16T15:06:56.211Z,33
2022-08-16T15:07:57.827Z,32.9
2022-08-16T15:08:59.317Z,32.7
2022-08-16T15:10:02.445Z,32.7
2022-08-16T15:11:05.400Z,32.8
2022-08-16T15:12:30.809Z,32.9
2022-08-16T15:13:38.681Z,32.8
2022-08-16T15:14:41.986Z,32.6
2022-08-16T15:15:43.614Z,32.5
2022-08-16T15:16:46.278Z,32.5
2022-08-16T15:17:57.445Z,32.5
2022-08-16T15:19:03.701Z,32.7
2022-08-16T15:20:09.191Z,32.6
2022-08-16T15:21:10.985Z,32.5
2022-08-16T15:22:14.575Z,32.6
2022-08-16T15:23:22.261Z,32.8
2022-08-16T15:24:23.860Z,32.9
2022-08-16T15:25:29.989Z,32.8
2022-08-16T15:26:46.978Z,32.9
2022-08-16T15:27:55.809Z,33.9
2022-08-16T15:28:59.469Z,34
2022-08-16T15:30:01.116Z,33.9
2022-08-16T15:31:04.292Z,34
2022-08-16T15:32:10.120Z,33.4
2022-08-16T15:33:32.446Z,33.4
2022-08-16T15:34:34.315Z,33.4
2022-08-16T15:35:38.925Z,33.4
2022-08-16T15:36:42.624Z,33.2
2022-08-16T15:37:44.494Z,33
2022-08-16T15:39:07.883Z,33
2022-08-16T15:40:59.474Z,33
2022-08-16T15:42:01.710Z,32.8
2022-08-16T15:43:06.765Z,32.7
2022-08-16T15:44:11.581Z,32.8
2022-08-16T15:45:13.613Z,32.9
2022-08-16T15:46:54.491Z,32.7
2022-08-16T15:48:07.693Z,32.8
2022-08-16T15:49:12.501Z,32.9
2022-08-16T15:50:16.409Z,32.8
2022-08-16T15:51:18.150Z,32.7
2022-08-16T15:52:20.901Z,32.6
2022-08-16T15:53:41.916Z,32.7
2022-08-16T15:55:35.693Z,32.6